Time;durP1;ratioP1;P1;durP2;ratioP2;P2;SDS_P1;SDS_P2;PMS_P1;PMS_P2;Temp;Humidity;BMP_temperature;BMP_pressure;BME280_temperature;BME280_humidity;BME280_pressure;Samples;Min_cycle;Max_cycle;Signal;HPM_P1;HPM_P2
2022/08/24 00:00:57;;;;;;;2.92;2.35;;;;;19.50;94413.00;;;;7396119;19;20616;-76
2022/08/24 00:03:33;;;;;;;2.95;2.22;;;;;19.60;94410.00;;;;7397636;19;20565;-77
2022/08/24 00:06:04;;;;;;;3.70;2.35;;;;;19.60;94415.00;;;;7397434;19;20159;-77
2022/08/24 00:08:31;;;;;;;4.25;2.40;;;;;19.50;94409.00;;;;7397126;19;20160;-78
2022/08/24 00:11:06;;;;;;;3.75;2.33;;;;;19.50;94411.00;;;;7398508;19;20136;-77
2022/08/24 00:13:34;;;;;;;3.28;2.35;;;;;19.40;94413.00;;;;7400533;19;20155;-76
2022/08/24 00:16:08;;;;;;;6.35;3.20;;;;;19.50;94413.00;;;;7397681;19;20164;-77
2022/08/24 00:18:43;;;;;;;2.88;2.10;;;;;19.50;94410.00;;;;7398723;19;20160;-79
2022/08/24 00:21:12;;;;;;;3.17;2.38;;;;;19.50;94413.00;;;;7398397;19;20141;-77
2022/08/24 00:23:39;;;;;;;2.92;2.30;;;;;19.40;94409.00;;;;7396291;19;20181;-77
2022/08/24 00:26:14;;;;;;;3.00;2.10;;;;;19.40;94409.00;;;;7396492;19;20152;-77
2022/08/24 00:28:41;;;;;;;2.67;2.45;;;;;19.40;94409.00;;;;7397913;19;20219;-75
2022/08/24 00:31:09;;;;;;;3.42;2.40;;;;;19.60;94417.00;;;;7398706;19;20137;-78
2022/08/24 00:33:43;;;;;;;5.30;2.58;;;;;19.50;94409.00;;;;7398485;19;20485;-77
2022/08/24 00:36:11;;;;;;;4.70;2.67;;;;;19.50;94408.00;;;;7394837;19;20157;-76
2022/08/24 00:38:38;;;;;;;3.55;2.30;;;;;19.50;94401.00;;;;7396265;19;20140;-80
2022/08/24 00:41:14;;;;;;;3.65;2.33;;;;;19.50;94405.00;;;;7398316;19;20638;-78
2022/08/24 00:43:53;;;;;;;4.50;2.38;;;;;19.50;94388.00;;;;7395966;19;20228;-77
2022/08/24 00:46:54;;;;;;;4.00;2.60;;;;;19.50;94391.00;;;;7395502;19;20144;-77
2022/08/24 00:49:32;;;;;;;7.55;2.47;;;;;19.50;94381.00;;;;7398368;19;20612;-76
2022/08/24 00:52:28;;;;;;;3.45;2.55;;;;;19.50;94390.00;;;;7396754;19;20588;-76
2022/08/24 00:55:00;;;;;;;2.47;2.22;;;;;19.50;94387.00;;;;7396655;19;20156;-77
2022/08/24 00:57:50;;;;;;;2.60;2.40;;;;;19.50;94389.00;;;;7398568;19;20223;-76
2022/08/24 01:00:29;;;;;;;3.03;2.22;;;;;19.40;94389.00;;;;7394505;19;20165;-76
2022/08/24 01:03:05;;;;;;;5.75;2.40;;;;;19.50;94384.00;;;;7393432;19;20176;-77
2022/08/24 01:05:36;;;;;;;4.03;2.05;;;;;19.40;94380.00;;;;7396470;19;20185;-78
2022/08/24 01:08:12;;;;;;;3.72;2.50;;;;;19.30;94388.00;;;;7396233;19;20129;-77
2022/08/24 01:10:50;;;;;;;2.95;2.58;;;;;19.10;94395.00;;;;7396548;19;20149;-77
2022/08/24 01:13:25;;;;;;;4.43;2.38;;;;;19.00;94388.00;;;;7392630;19;20132;-77
2022/08/24 01:15:56;;;;;;;2.85;2.40;;;;;19.10;94386.00;;;;7387785;19;20613;-77
2022/08/24 01:21:30;;;;;;;4.10;2.90;;;;;18.90;94384.00;;;;7399731;19;20144;-77
2022/08/24 01:24:01;;;;;;;3.00;2.33;;;;;18.90;94391.00;;;;7392777;19;20140;-76
2022/08/24 01:26:41;;;;;;;3.67;2.30;;;;;18.80;94387.00;;;;7394471;19;20607;-77
2022/08/24 01:29:13;;;;;;;4.20;2.63;;;;;18.70;94393.00;;;;7396117;19;20164;-78
2022/08/24 01:31:50;;;;;;;3.38;2.42;;;;;18.60;94395.00;;;;7393098;19;21346;-79
2022/08/24 01:34:17;;;;;;;4.45;2.55;;;;;18.60;94394.00;;;;7393750;19;20140;-77
2022/08/24 01:36:49;;;;;;;5.00;2.22;;;;;18.40;94388.00;;;;7396189;19;20228;-77
2022/08/24 01:39:32;;;;;;;3.55;2.40;;;;;18.50;94389.00;;;;7394500;19;20170;-78
2022/08/24 01:42:00;;;;;;;3.47;2.33;;;;;18.40;94393.00;;;;7393014;19;20654;-77
2022/08/24 01:44:36;;;;;;;3.75;2.33;;;;;18.20;94386.00;;;;7393266;19;20152;-77
2022/08/24 01:47:06;;;;;;;3.70;2.42;;;;;18.20;94390.00;;;;7393069;19;20149;-78
2022/08/24 01:49:37;;;;;;;3.47;2.63;;;;;18.20;94384.00;;;;7395789;19;20930;-77
2022/08/24 01:52:24;;;;;;;3.97;2.75;;;;;18.10;94391.00;;;;7396358;19;20170;-76
2022/08/24 01:54:53;;;;;;;3.00;2.30;;;;;18.00;94390.00;;;;7395154;19;20502;-77
2022/08/24 01:57:27;;;;;;;2.42;2.22;;;;;17.90;94382.00;;;;7395047;19;20144;-77
2022/08/24 01:59:55;;;;;;;4.45;2.60;;;;;17.80;94389.00;;;;7395889;19;20153;-78
2022/08/24 02:02:30;;;;;;;5.78;2.38;;;;;17.80;94388.00;;;;7391858;19;20652;-76
2022/08/24 02:05:04;;;;;;;5.50;2.70;;;;;17.90;94385.00;;;;7396724;19;20182;-77
2022/08/24 02:07:31;;;;;;;5.13;2.60;;;;;17.90;94388.00;;;;7396579;19;20125;-77
2022/08/24 02:09:59;;;;;;;4.28;2.65;;;;;18.00;94393.00;;;;7394223;19;20212;-79
2022/08/24 02:12:36;;;;;;;6.72;2.70;;;;;18.00;94389.00;;;;7395421;19;20175;-78
2022/08/24 02:15:06;;;;;;;5.80;3.10;;;;;17.80;94391.00;;;;7394959;19;20498;-78
2022/08/24 02:17:41;;;;;;;6.82;2.70;;;;;17.60;94389.00;;;;7394622;19;20947;-78
2022/08/24 02:20:09;;;;;;;3.03;2.45;;;;;17.50;94388.00;;;;7392353;19;20650;-80
2022/08/24 02:22:36;;;;;;;4.03;2.63;;;;;17.40;94396.00;;;;7392871;19;20137;-78
2022/08/24 02:25:10;;;;;;;3.05;2.50;;;;;17.30;94396.00;;;;7394120;19;20173;-78
2022/08/24 02:27:40;;;;;;;2.88;2.58;;;;;17.20;94398.00;;;;7394653;19;20163;-78
2022/08/24 02:30:08;;;;;;;3.10;2.80;;;;;17.10;94395.00;;;;7391863;19;20161;-78
2022/08/24 02:32:42;;;;;;;4.85;2.55;;;;;17.00;94400.00;;;;7394252;19;20125;-78
2022/08/24 02:35:10;;;;;;;2.70;2.25;;;;;17.20;94399.00;;;;7392436;19;20152;-78
2022/08/24 02:37:38;;;;;;;4.75;2.80;;;;;17.30;94398.00;;;;7394244;19;20129;-77
2022/08/24 02:40:12;;;;;;;4.18;2.53;;;;;17.20;94393.00;;;;7396000;19;20588;-77
2022/08/24 02:42:40;;;;;;;3.00;2.47;;;;;17.30;94391.00;;;;7392148;19;20174;-77
2022/08/24 02:45:09;;;;;;;2.70;2.40;;;;;17.30;94387.00;;;;7391643;19;20550;-77
2022/08/24 02:47:44;;;;;;;4.88;2.65;;;;;17.30;94390.00;;;;7394466;19;20151;-78
2022/08/24 02:50:20;;;;;;;4.88;2.50;;;;;17.20;94388.00;;;;7393596;19;20172;-78
2022/08/24 02:53:01;;;;;;;4.55;2.33;;;;;17.10;94388.00;;;;7392701;19;20132;-79
2022/08/24 02:55:29;;;;;;;2.92;2.35;;;;;17.00;94394.00;;;;7393420;19;20152;-79
2022/08/24 02:58:02;;;;;;;4.90;2.55;;;;;17.00;94381.00;;;;7390460;19;20133;-78
2022/08/24 03:00:32;;;;;;;5.68;2.47;;;;;17.10;94387.00;;;;7392278;19;20160;-78
2022/08/24 03:03:00;;;;;;;6.97;2.70;;;;;17.10;94384.00;;;;7390363;19;20180;-79
2022/08/24 03:05:35;;;;;;;3.03;2.70;;;;;17.10;94380.00;;;;7392304;19;20504;-77
2022/08/24 03:08:03;;;;;;;3.60;2.50;;;;;17.00;94386.00;;;;7392536;19;20190;-76
2022/08/24 03:10:32;;;;;;;5.13;2.55;;;;;16.90;94385.00;;;;7393803;19;20886;-76
2022/08/24 03:13:10;;;;;;;5.05;2.45;;;;;16.80;94385.00;;;;7391717;19;20143;-77
2022/08/24 03:15:40;;;;;;;4.68;2.42;;;;;16.60;94388.00;;;;7393921;19;20722;-78
2022/08/24 03:18:07;;;;;;;3.92;2.70;;;;;16.70;94376.00;;;;7393280;19;20169;-77
2022/08/24 03:20:42;;;;;;;11.73;2.80;;;;;16.80;94382.00;;;;7392071;19;20141;-78
2022/08/24 03:23:10;;;;;;;3.72;2.60;;;;;16.90;94380.00;;;;7392069;19;20137;-76
2022/08/24 03:25:38;;;;;;;4.85;2.70;;;;;17.00;94379.00;;;;7393726;19;20655;-78
2022/08/24 03:28:13;;;;;;;2.58;2.38;;;;;16.90;94372.00;;;;7391508;19;20151;-77
2022/08/24 03:30:42;;;;;;;3.80;2.55;;;;;17.10;94375.00;;;;7390561;19;20762;-77
2022/08/24 03:33:14;;;;;;;5.80;2.80;;;;;17.10;94374.00;;;;7392575;19;20522;-78
2022/08/24 03:35:49;;;;;;;4.22;2.60;;;;;17.00;94370.00;;;;7391031;19;20156;-78
2022/08/24 03:38:17;;;;;;;3.58;2.60;;;;;16.90;94370.00;;;;7391654;19;20160;-76
2022/08/24 03:40:45;;;;;;;4.72;2.90;;;;;16.70;94368.00;;;;7390879;19;20153;-78
2022/08/24 03:46:07;;;;;;;3.42;2.30;;;;;16.60;94380.00;;;;7391001;19;20126;-78
2022/08/24 03:48:43;;;;;;;4.90;2.58;;;;;16.70;94375.00;;;;7390530;19;20132;-78
2022/08/24 03:51:21;;;;;;;7.97;2.92;;;;;16.80;94378.00;;;;7390118;19;20169;-78
2022/08/24 03:53:58;;;;;;;5.45;3.00;;;;;17.00;94372.00;;;;7390711;19;20149;-79
2022/08/24 03:56:26;;;;;;;3.55;2.30;;;;;17.00;94370.00;;;;7388801;19;20607;-78
2022/08/24 03:58:54;;;;;;;3.60;2.67;;;;;17.20;94380.00;;;;7390091;19;20643;-78
2022/08/24 04:01:28;;;;;;;4.07;2.70;;;;;17.20;94374.00;;;;7391036;19;20588;-78
2022/08/24 04:03:56;;;;;;;4.72;2.42;;;;;17.10;94378.00;;;;7389436;19;20195;-79
2022/08/24 04:06:24;;;;;;;3.78;2.58;;;;;17.10;94377.00;;;;7391202;19;20135;-78
2022/08/24 04:08:57;;;;;;;4.97;2.88;;;;;17.10;94379.00;;;;7390557;19;20182;-78
2022/08/24 04:11:27;;;;;;;5.70;2.67;;;;;17.00;94382.00;;;;7398339;19;20187;-78
2022/08/24 04:13:57;;;;;;;2.47;2.28;;;;;17.00;94381.00;;;;7398548;19;20148;-77
2022/08/24 04:16:32;;;;;;;3.10;2.53;;;;;17.10;94385.00;;;;7397023;19;20164;-78
2022/08/24 04:19:02;;;;;;;6.88;2.53;;;;;17.10;94383.00;;;;7400067;19;20229;-78
2022/08/24 04:21:34;;;;;;;4.75;2.63;;;;;17.10;94379.00;;;;7399177;19;20232;-77
2022/08/24 04:24:10;;;;;;;3.33;2.25;;;;;17.10;94383.00;;;;7399801;19;20164;-78
2022/08/24 04:26:42;;;;;;;4.55;2.40;;;;;17.10;94378.00;;;;7398012;19;20150;-79
2022/08/24 04:29:19;;;;;;;6.03;2.70;;;;;17.20;94377.00;;;;7398019;19;20622;-76
2022/08/24 04:31:48;;;;;;;3.75;2.03;;;;;17.30;94383.00;;;;7397107;19;20141;-77
2022/08/24 04:34:17;;;;;;;3.30;2.40;;;;;17.30;94385.00;;;;7397303;19;20453;-78
2022/08/24 04:36:51;;;;;;;4.35;2.13;;;;;17.40;94377.00;;;;7394869;19;20149;-78
2022/08/24 04:39:18;;;;;;;5.70;2.08;;;;;17.30;94386.00;;;;7397240;19;20157;-77
2022/08/24 04:41:46;;;;;;;2.88;2.30;;;;;17.30;94391.00;;;;7399905;19;20137;-76
2022/08/24 04:44:21;;;;;;;4.20;2.40;;;;;17.20;94389.00;;;;7387112;19;20133;-76
2022/08/24 04:46:48;;;;;;;3.13;2.28;;;;;17.10;94394.00;;;;7396266;19;20647;-79
2022/08/24 04:49:18;;;;;;;5.35;2.50;;;;;17.10;94394.00;;;;7397598;19;20627;-79
2022/08/24 04:51:58;;;;;;;2.90;2.42;;;;;17.20;94396.00;;;;7394527;19;20178;-79
2022/08/24 04:54:26;;;;;;;5.28;2.17;;;;;17.10;94392.00;;;;7399589;19;20213;-77
2022/08/24 04:57:02;;;;;;;4.60;2.28;;;;;17.00;94397.00;;;;7400785;19;20168;-78
2022/08/24 04:59:29;;;;;;;4.60;2.42;;;;;17.20;94403.00;;;;7400428;19;20160;-77
2022/08/24 05:01:57;;;;;;;3.55;2.20;;;;;17.30;94398.00;;;;7402043;19;20554;-77
2022/08/24 05:04:32;;;;;;;2.85;2.28;;;;;17.50;94401.00;;;;7398806;19;20500;-78
2022/08/24 05:06:59;;;;;;;3.70;2.40;;;;;17.70;94397.00;;;;7397328;19;20914;-78
2022/08/24 05:09:30;;;;;;;3.47;2.20;;;;;17.70;94399.00;;;;7401996;19;20239;-78
2022/08/24 05:12:05;;;;;;;9.27;2.60;;;;;17.70;94404.00;;;;7401335;19;20128;-76
2022/08/24 05:14:33;;;;;;;4.82;2.42;;;;;17.80;94401.00;;;;7399061;19;20976;-76
2022/08/24 05:17:00;;;;;;;5.25;2.00;;;;;18.00;94407.00;;;;7399848;19;20155;-77
2022/08/24 05:19:36;;;;;;;6.32;2.40;;;;;18.00;94400.00;;;;7398155;19;20155;-77
2022/08/24 05:22:04;;;;;;;5.63;2.40;;;;;18.00;94403.00;;;;7398733;19;20622;-77
2022/08/24 05:24:32;;;;;;;4.38;2.10;;;;;18.10;94402.00;;;;7399902;19;20588;-77
2022/08/24 05:27:07;;;;;;;3.00;2.10;;;;;18.30;94396.00;;;;7400069;19;20203;-78
2022/08/24 05:29:36;;;;;;;3.70;2.13;;;;;18.40;94404.00;;;;7399299;19;20162;-77
2022/08/24 05:32:05;;;;;;;5.55;2.20;;;;;18.70;94402.00;;;;7400743;19;20171;-79
2022/08/24 05:34:39;;;;;;;3.90;2.30;;;;;19.10;94408.00;;;;7396800;19;20149;-77
2022/08/24 05:37:07;;;;;;;3.13;2.20;;;;;19.20;94408.00;;;;7397505;19;20216;-77
2022/08/24 05:39:35;;;;;;;2.38;2.17;;;;;19.20;94410.00;;;;7399674;19;20164;-78
2022/08/24 05:42:09;;;;;;;3.55;2.20;;;;;19.40;94410.00;;;;7401862;19;20627;-78
2022/08/24 05:44:37;;;;;;;3.35;2.30;;;;;19.40;94417.00;;;;7399304;19;20133;-78
2022/08/24 05:47:05;;;;;;;6.90;2.40;;;;;19.50;94415.00;;;;7398120;19;20137;-76
2022/08/24 05:49:39;;;;;;;5.57;2.20;;;;;19.70;94417.00;;;;7399590;19;20514;-77
2022/08/24 05:52:15;;;;;;;3.97;2.42;;;;;19.80;94416.00;;;;7397443;19;20164;-76
2022/08/24 05:54:58;;;;;;;5.53;2.70;;;;;19.90;94425.00;;;;7398194;19;20156;-77
2022/08/24 05:57:30;;;;;;;4.47;2.20;;;;;19.90;94422.00;;;;7399114;19;20192;-77
2022/08/24 06:00:09;;;;;;;3.38;2.42;;;;;20.00;94425.00;;;;7397477;19;20152;-76
2022/08/24 06:02:36;;;;;;;4.55;2.00;;;;;20.00;94423.00;;;;7395996;19;20173;-77
2022/08/24 06:05:05;;;;;;;4.53;2.33;;;;;20.00;94435.00;;;;7398643;19;20159;-77
2022/08/24 06:07:39;;;;;;;3.30;2.10;;;;;19.90;94436.00;;;;7398307;19;20132;-77
2022/08/24 06:10:08;;;;;;;6.68;2.22;;;;;20.10;94437.00;;;;7400286;19;20485;-77
2022/08/24 06:12:56;;;;;;;3.33;2.05;;;;;20.30;94416.00;;;;7399536;19;20787;-78
2022/08/24 06:15:30;;;;;;;3.78;1.85;;;;;20.50;94423.00;;;;7399626;19;20169;-77
2022/08/24 06:17:57;;;;;;;5.38;2.38;;;;;20.80;94434.00;;;;7394478;19;20725;-78
2022/08/24 06:20:28;;;;;;;4.22;2.60;;;;;20.90;94427.00;;;;7398192;19;20144;-77
2022/08/24 06:23:06;;;;;;;6.85;2.78;;;;;21.00;94429.00;;;;7397923;19;20162;-76
2022/08/24 06:28:32;;;;;;;6.43;2.88;;;;;21.20;94428.00;;;;7399109;19;20148;-78
2022/08/24 06:31:05;;;;;;;5.47;2.50;;;;;21.50;94427.00;;;;7399301;19;20161;-77
2022/08/24 06:33:41;;;;;;;3.50;2.55;;;;;21.60;94426.00;;;;7398150;19;20508;-77
2022/08/24 06:36:09;;;;;;;4.38;2.20;;;;;21.80;94429.00;;;;7397864;19;20169;-77
2022/08/24 06:38:37;;;;;;;8.00;2.47;;;;;21.90;94434.00;;;;7395970;19;20168;-77
2022/08/24 06:41:13;;;;;;;3.97;2.30;;;;;22.10;94428.00;;;;7399412;19;20500;-77
2022/08/24 06:43:41;;;;;;;3.47;2.30;;;;;22.20;94424.00;;;;7397805;19;20156;-76
2022/08/24 06:46:09;;;;;;;4.32;2.17;;;;;22.20;94428.00;;;;7394326;19;20683;-77
2022/08/24 06:48:51;;;;;;;4.45;2.20;;;;;22.20;94438.00;;;;7395986;19;20148;-78
2022/08/24 06:51:27;;;;;;;3.13;2.08;;;;;22.20;94437.00;;;;7397134;19;20180;-77
2022/08/24 06:54:08;;;;;;;4.43;2.40;;;;;22.40;94446.00;;;;7394441;19;20125;-76
2022/08/24 06:56:37;;;;;;;2.55;2.35;;;;;22.70;94445.00;;;;7393938;19;20155;-78
2022/08/24 06:59:11;;;;;;;4.43;2.67;;;;;23.00;94438.00;;;;7389876;19;20599;-77
2022/08/24 07:01:38;;;;;;;4.05;2.38;;;;;23.10;94437.00;;;;7391479;19;20595;-78
2022/08/24 07:04:07;;;;;;;3.22;2.22;;;;;23.20;94441.00;;;;7391319;19;20646;-76
2022/08/24 07:06:41;;;;;;;2.60;2.20;;;;;23.10;94443.00;;;;7394489;19;20131;-79
2022/08/24 07:09:09;;;;;;;3.15;2.25;;;;;23.00;94444.00;;;;7391649;19;20182;-78
2022/08/24 07:11:36;;;;;;;2.92;2.28;;;;;23.00;94439.00;;;;7392534;19;20188;-78
2022/08/24 07:14:10;;;;;;;4.03;2.25;;;;;23.10;94444.00;;;;7389142;19;20516;-78
2022/08/24 07:16:43;;;;;;;4.13;2.22;;;;;23.30;94437.00;;;;7393101;19;20145;-78
2022/08/24 07:19:18;;;;;;;5.22;2.38;;;;;23.50;94439.00;;;;7392869;19;20211;-78
2022/08/24 07:21:46;;;;;;;3.35;2.25;;;;;23.70;94438.00;;;;7391216;19;20496;-79
2022/08/24 07:24:17;;;;;;;4.20;2.60;;;;;23.80;94441.00;;;;7391694;19;20152;-76
2022/08/24 07:26:55;;;;;;;5.20;2.28;;;;;23.90;94442.00;;;;7391509;19;20153;-79
2022/08/24 07:29:22;;;;;;;2.85;2.22;;;;;24.20;94451.00;;;;7390371;19;20161;-79
2022/08/24 07:32:11;;;;;;;2.97;2.15;;;;;24.30;94458.00;;;;7392465;19;20544;-79
2022/08/24 07:34:45;;;;;;;4.93;2.58;;;;;24.30;94454.00;;;;7392333;19;20128;-77
2022/08/24 07:37:13;;;;;;;3.38;2.30;;;;;24.40;94455.00;;;;7392634;19;20509;-78
2022/08/24 07:39:41;;;;;;;4.43;2.58;;;;;24.70;94452.00;;;;7392433;19;20133;-78
2022/08/24 07:42:16;;;;;;;4.68;2.33;;;;;24.90;94451.00;;;;7391893;19;20132;-79
2022/08/24 07:44:56;;;;;;;3.28;2.20;;;;;25.10;94459.00;;;;7392148;19;20612;-80
2022/08/24 07:47:30;;;;;;;3.55;2.33;;;;;25.20;94464.00;;;;7398958;19;20147;-78
2022/08/24 07:50:20;;;;;;;6.45;2.25;;;;;25.40;94450.00;;;;7397991;19;20132;-79
2022/08/24 07:53:01;;;;;;;2.35;2.10;;;;;25.70;94457.00;;;;7399066;19;20500;-77
2022/08/24 07:55:30;;;;;;;2.47;2.10;;;;;25.60;94457.00;;;;7398277;19;20149;-77
2022/08/24 07:58:12;;;;;;;3.67;2.42;;;;;25.80;94462.00;;;;7397166;19;20571;-76
2022/08/24 08:00:40;;;;;;;3.35;2.00;;;;;26.00;94461.00;;;;7397203;19;20165;-77
2022/08/24 08:03:14;;;;;;;3.80;2.10;;;;;26.20;94465.00;;;;7397424;19;20236;-78
2022/08/24 08:05:42;;;;;;;5.40;2.20;;;;;26.30;94471.00;;;;7397101;19;20469;-76
2022/08/24 08:08:10;;;;;;;3.55;1.92;;;;;26.40;94463.00;;;;7397190;19;20149;-77
2022/08/24 08:10:45;;;;;;;4.45;2.00;;;;;26.60;94463.00;;;;7396659;19;20161;-78
2022/08/24 08:13:14;;;;;;;3.40;2.15;;;;;26.70;94464.00;;;;7394224;19;20227;-78
2022/08/24 08:15:41;;;;;;;3.65;2.00;;;;;26.50;94461.00;;;;7397642;19;20636;-77
2022/08/24 08:18:18;;;;;;;3.58;2.20;;;;;26.70;94472.00;;;;7397943;19;20590;-77
2022/08/24 08:20:46;;;;;;;5.80;2.15;;;;;27.00;94464.00;;;;7396526;19;20788;-77
2022/08/24 08:26:16;;;;;;;3.28;2.28;;;;;27.10;94473.00;;;;7399049;19;20133;-78
2022/08/24 08:28:44;;;;;;;3.45;2.30;;;;;27.30;94477.00;;;;7395927;19;20460;-78
2022/08/24 08:31:17;;;;;;;5.00;2.70;;;;;27.40;94478.00;;;;7395519;19;20152;-76
2022/08/24 08:33:45;;;;;;;7.00;2.20;;;;;27.30;94481.00;;;;7397813;19;21504;-78
2022/08/24 08:36:14;;;;;;;3.30;2.38;;;;;27.20;94476.00;;;;7398904;19;20142;-76
2022/08/24 08:38:49;;;;;;;7.88;2.03;;;;;27.20;94465.00;;;;7398563;19;20193;-77
2022/08/24 08:41:16;;;;;;;3.55;2.10;;;;;27.00;94474.00;;;;7397323;19;20178;-78
2022/08/24 08:43:59;;;;;;;3.25;2.20;;;;;27.20;94479.00;;;;7395517;19;20137;-79
2022/08/24 08:47:21;;;;;;;2.60;2.00;;;;;27.00;94484.00;;;;7388317;19;20167;-79
2022/08/24 08:50:06;;;;;;;2.92;2.28;;;;;27.10;94482.00;;;;7396259;19;20730;-79
2022/08/24 08:53:21;;;;;;;3.30;2.10;;;;;27.20;94486.00;;;;7393586;19;20195;-80
2022/08/24 08:56:03;;;;;;;8.50;2.10;;;;;27.40;94484.00;;;;7396655;19;20279;-79
2022/08/24 08:59:00;;;;;;;3.30;2.20;;;;;27.30;94487.00;;;;7397504;19;20152;-78
2022/08/24 09:01:28;;;;;;;3.47;1.67;;;;;27.50;94483.00;;;;7395711;19;20623;-77
2022/08/24 09:04:45;;;;;;;4.80;1.80;;;;;27.60;94484.00;;;;7395422;19;20198;-78
2022/08/24 09:07:23;;;;;;;3.72;1.95;;;;;27.50;94484.00;;;;7397432;19;20277;-79
2022/08/24 09:10:15;;;;;;;6.63;2.60;;;;;27.70;94487.00;;;;7396272;19;20129;-78
2022/08/24 09:13:25;;;;;;;3.55;2.22;;;;;27.70;94483.00;;;;7393677;19;20880;-77
2022/08/24 09:16:24;;;;;;;5.82;2.42;;;;;27.60;94480.00;;;;7396579;19;20158;-77
2022/08/24 09:19:25;;;;;;;5.43;2.42;;;;;27.50;94488.00;;;;7395284;19;20473;-78
2022/08/24 09:22:14;;;;;;;4.07;2.38;;;;;27.90;94487.00;;;;7394755;19;20152;-77
2022/08/24 09:24:53;;;;;;;5.20;2.40;;;;;27.40;94496.00;;;;7397542;19;20643;-77
2022/08/24 09:27:52;;;;;;;3.83;2.17;;;;;27.90;94480.00;;;;7396750;19;20223;-78
2022/08/24 09:30:26;;;;;;;4.07;2.30;;;;;28.20;94481.00;;;;7395397;19;20679;-78
2022/08/24 09:33:07;;;;;;;5.75;2.00;;;;;28.20;94481.00;;;;7397093;19;20137;-77
2022/08/24 09:35:45;;;;;;;7.78;2.10;;;;;28.50;94480.00;;;;7395505;19;20661;-77
2022/08/24 09:38:44;;;;;;;3.92;2.13;;;;;28.30;94486.00;;;;7395340;19;20148;-79
2022/08/24 09:41:37;;;;;;;7.88;2.08;;;;;28.20;94482.00;;;;7394283;19;20616;-78
2022/08/24 09:45:01;;;;;;;7.78;2.40;;;;;28.40;94483.00;;;;7396821;19;20125;-78
2022/08/24 09:47:47;;;;;;;6.90;2.22;;;;;28.50;94487.00;;;;7393129;19;20140;-77
2022/08/24 09:51:14;;;;;;;5.35;2.03;;;;;28.60;94480.00;;;;7393941;19;20160;-78
2022/08/24 09:54:03;;;;;;;4.35;2.08;;;;;29.10;94469.00;;;;7396943;19;20165;-78
2022/08/24 09:56:58;;;;;;;4.20;2.30;;;;;29.00;94473.00;;;;7395407;19;20129;-77
2022/08/24 10:00:08;;;;;;;4.85;2.00;;;;;29.10;94477.00;;;;7393335;19;20521;-77
2022/08/24 10:03:14;;;;;;;4.43;2.20;;;;;28.90;94479.00;;;;7392220;19;20191;-77
2022/08/24 10:05:48;;;;;;;2.28;1.80;;;;;29.30;94480.00;;;;7395017;19;20129;-78
2022/08/24 10:08:55;;;;;;;4.57;2.13;;;;;29.50;94482.00;;;;7394587;19;20840;-78
2022/08/24 10:11:48;;;;;;;4.53;2.00;;;;;30.00;94469.00;;;;7389414;19;20164;-77
2022/08/24 10:14:50;;;;;;;3.53;2.30;;;;;30.10;94469.00;;;;7391966;19;20137;-77
2022/08/24 10:17:43;;;;;;;11.13;2.45;;;;;30.10;94474.00;;;;7393026;19;20163;-77
2022/08/24 10:20:26;;;;;;;6.32;2.30;;;;;30.00;94475.00;;;;7393155;19;20510;-77
2022/08/24 10:23:12;;;;;;;7.00;2.30;;;;;29.90;94478.00;;;;7394302;19;20662;-76
2022/08/24 10:26:02;;;;;;;4.55;2.20;;;;;29.90;94468.00;;;;7395521;19;20154;-79
2022/08/24 10:29:01;;;;;;;3.55;2.17;;;;;30.00;94467.00;;;;7391502;19;20140;-77
2022/08/24 10:31:55;;;;;;;3.97;2.30;;;;;30.10;94461.00;;;;7390644;19;20161;-78
2022/08/24 10:34:29;;;;;;;4.00;1.98;;;;;29.80;94466.00;;;;7391378;19;20177;-78
2022/08/24 10:37:15;;;;;;;3.15;2.00;;;;;29.80;94460.00;;;;7394982;19;20141;-78
2022/08/24 10:40:18;;;;;;;3.50;1.90;;;;;29.50;94470.00;;;;7395365;19;20505;-78
2022/08/24 10:46:19;;;;;;;3.60;2.08;;;;;29.20;94470.00;;;;7392778;19;20548;-78
2022/08/24 10:48:59;;;;;;;3.88;1.77;;;;;29.50;94475.00;;;;7390873;19;20611;-78
2022/08/24 10:51:57;;;;;;;3.22;1.95;;;;;29.90;94464.00;;;;7393739;19;20152;-81
2022/08/24 10:54:35;;;;;;;4.07;2.20;;;;;29.70;94462.00;;;;7394391;19;20140;-80
2022/08/24 10:57:25;;;;;;;5.55;2.78;;;;;30.00;94470.00;;;;7392286;19;20145;-78
2022/08/24 11:00:13;;;;;;;4.13;2.20;;;;;30.10;94459.00;;;;7391928;19;20499;-78
2022/08/24 11:03:09;;;;;;;5.57;2.53;;;;;30.00;94458.00;;;;7388799;19;20196;-77
2022/08/24 11:05:48;;;;;;;5.28;2.00;;;;;29.80;94460.00;;;;7391816;19;20629;-78
2022/08/24 11:08:32;;;;;;;5.78;2.50;;;;;30.10;94469.00;;;;7392640;19;20160;-77
2022/08/24 11:11:08;;;;;;;5.53;2.30;;;;;30.20;94467.00;;;;7391519;19;20164;-78
2022/08/24 11:13:49;;;;;;;3.45;2.40;;;;;30.00;94465.00;;;;7391701;19;20144;-78
2022/08/24 11:16:30;;;;;;;3.55;2.03;;;;;30.00;94473.00;;;;7391547;19;20156;-79
2022/08/24 11:19:00;;;;;;;3.15;2.20;;;;;30.20;94456.00;;;;7392547;19;20153;-78
2022/08/24 11:21:45;;;;;;;10.35;2.30;;;;;30.10;94462.00;;;;7392312;19;20132;-80
2022/08/24 11:24:25;;;;;;;4.00;2.20;;;;;30.20;94457.00;;;;7392313;19;20133;-76
2022/08/24 11:27:05;;;;;;;5.65;2.10;;;;;30.50;94452.00;;;;7390636;19;20152;-78
2022/08/24 11:29:51;;;;;;;5.03;2.15;;;;;30.60;94439.00;;;;7392962;19;20147;-80
2022/08/24 11:32:38;;;;;;;2.83;2.00;;;;;30.70;94450.00;;;;7391500;19;20136;-80
2022/08/24 11:35:12;;;;;;;3.88;2.10;;;;;31.10;94444.00;;;;7392388;19;20159;-80
2022/08/24 11:38:11;;;;;;;8.18;2.28;;;;;31.40;94449.00;;;;7392325;19;20481;-79
2022/08/24 11:41:21;;;;;;;2.88;2.30;;;;;31.40;94446.00;;;;7394065;19;20128;-78
2022/08/24 11:44:20;;;;;;;4.47;2.55;;;;;31.30;94449.00;;;;7390845;19;20141;-78
2022/08/24 11:47:27;;;;;;;6.05;2.30;;;;;31.50;94454.00;;;;7390027;19;20152;-79
2022/08/24 11:50:34;;;;;;;5.47;2.38;;;;;31.60;94438.00;;;;7390003;19;20144;-77
2022/08/24 11:53:25;;;;;;;6.22;2.17;;;;;31.10;94457.00;;;;7387746;19;20172;-77
2022/08/24 11:56:36;;;;;;;4.00;2.20;;;;;31.50;94460.00;;;;7392008;19;20136;-78
2022/08/24 11:59:03;;;;;;;4.80;2.75;;;;;31.10;94460.00;;;;7389430;19;20211;-79
2022/08/24 12:01:59;;;;;;;2.25;2.05;;;;;31.30;94454.00;;;;7392926;19;20479;-77
2022/08/24 12:04:58;;;;;;;4.47;2.35;;;;;30.90;94454.00;;;;7390650;19;20144;-79
2022/08/24 12:07:46;;;;;;;3.88;2.20;;;;;31.40;94448.00;;;;7388136;19;20219;-80
2022/08/24 12:10:49;;;;;;;7.95;2.63;;;;;31.20;94450.00;;;;7392664;19;20606;-78
2022/08/24 12:13:42;;;;;;;3.67;2.10;;;;;31.10;94444.00;;;;7389027;19;20611;-78
2022/08/24 12:16:33;;;;;;;3.63;2.17;;;;;30.90;94444.00;;;;7390457;19;20240;-77
2022/08/24 12:19:30;;;;;;;4.32;2.58;;;;;31.00;94433.00;;;;7391211;19;20145;-79
2022/08/24 12:22:02;;;;;;;3.85;2.33;;;;;31.10;94433.00;;;;7390518;19;20141;-78
2022/08/24 12:24:45;;;;;;;7.35;2.50;;;;;31.60;94435.00;;;;7390629;19;20504;-79
2022/08/24 12:27:34;;;;;;;3.42;2.50;;;;;31.50;94443.00;;;;7388157;19;20133;-78
2022/08/24 12:30:15;;;;;;;2.58;2.17;;;;;31.60;94436.00;;;;7392698;19;20587;-77
2022/08/24 12:32:52;;;;;;;3.53;2.00;;;;;31.70;94426.00;;;;7394895;19;20529;-80
2022/08/24 12:35:29;;;;;;;4.80;2.17;;;;;31.20;94429.00;;;;7398536;19;20136;-79
2022/08/24 12:38:14;;;;;;;2.88;2.17;;;;;31.80;94419.00;;;;7398391;19;20125;-78
2022/08/24 12:40:55;;;;;;;3.05;2.20;;;;;31.60;94427.00;;;;7396164;19;20596;-79
2022/08/24 12:43:36;;;;;;;3.45;2.20;;;;;31.70;94434.00;;;;7396459;19;20603;-77
2022/08/24 12:46:13;;;;;;;3.65;2.13;;;;;30.70;94435.00;;;;7397982;19;20500;-77
2022/08/24 12:48:49;;;;;;;4.70;1.98;;;;;31.10;94436.00;;;;7396489;19;20217;-79
2022/08/24 12:51:49;;;;;;;4.55;2.10;;;;;31.40;94429.00;;;;7396781;19;20152;-79
2022/08/24 12:54:41;;;;;;;7.05;2.33;;;;;31.70;94434.00;;;;7397432;19;20133;-78
2022/08/24 12:57:32;;;;;;;6.15;2.10;;;;;31.40;94422.00;;;;7396588;19;20152;-79
2022/08/24 13:00:27;;;;;;;3.55;2.08;;;;;31.60;94417.00;;;;7396606;19;20145;-78
2022/08/24 13:03:05;;;;;;;3.53;2.10;;;;;31.50;94439.00;;;;7397699;19;20484;-79
2022/08/24 13:05:44;;;;;;;2.92;2.17;;;;;30.60;94425.00;;;;7394813;19;20185;-80
2022/08/24 13:08:32;;;;;;;2.25;1.80;;;;;31.00;94417.00;;;;7393553;19;20604;-79
2022/08/24 13:11:34;;;;;;;2.35;2.03;;;;;30.80;94420.00;;;;7395531;19;20145;-78
2022/08/24 13:14:25;;;;;;;3.08;1.77;;;;;30.80;94422.00;;;;7394136;19;20129;-78
2022/08/24 13:16:56;;;;;;;2.80;1.83;;;;;31.00;94415.00;;;;7394172;19;20161;-79
2022/08/24 13:19:39;;;;;;;5.00;1.98;;;;;30.90;94417.00;;;;7394539;19;20157;-78
2022/08/24 13:22:11;;;;;;;4.78;2.00;;;;;30.60;94423.00;;;;7395519;19;20160;-78
2022/08/24 13:25:01;;;;;;;5.10;1.95;;;;;30.30;94427.00;;;;7396693;19;20117;-81
2022/08/24 13:27:37;;;;;;;2.47;1.80;;;;;30.00;94413.00;;;;7394731;19;20147;-78